Time;durP1;ratioP1;P1;durP2;ratioP2;P2;SDS_P1;SDS_P2;PMS_P1;PMS_P2;Temp;Humidity;BMP_temperature;BMP_pressure;BME280_temperature;BME280_humidity;BME280_pressure;Samples;Min_cycle;Max_cycle;Signal;HPM_P1;HPM_P2
2022/06/14 00:00:56;;;;;;;11.52;3.00;;;11.40;99.90;;;;;;5037077;28;20091;-37
2022/06/14 00:03:27;;;;;;;10.50;2.80;;;11.40;99.90;;;;;;5014172;28;20054;-36
2022/06/14 00:05:53;;;;;;;;;;;11.40;99.90;;;;;;5041481;23;20064;-37
2022/06/14 00:08:21;;;;;;;13.70;2.60;;;11.50;99.90;;;;;;5033735;28;19925;-37
2022/06/14 00:10:49;;;;;;;7.50;2.55;;;11.40;99.90;;;;;;5032428;28;20159;-36
2022/06/14 00:13:15;;;;;;;11.93;2.42;;;11.50;99.90;;;;;;5034583;28;20045;-37
2022/06/14 00:15:44;;;;;;;9.95;2.70;;;11.50;99.90;;;;;;5023857;28;20076;-37
2022/06/14 00:18:09;;;;;;;11.13;3.17;;;11.50;99.90;;;;;;5028614;28;20500;-37
2022/06/14 00:20:36;;;;;;;10.65;2.90;;;11.50;99.90;;;;;;5039368;28;20322;-37
2022/06/14 00:23:04;;;;;;;9.15;3.17;;;11.50;99.90;;;;;;5009973;28;20066;-37
2022/06/14 00:25:34;;;;;;;12.70;3.15;;;11.50;99.90;;;;;;5034019;28;20140;-36
2022/06/14 00:28:01;;;;;;;8.93;2.97;;;11.50;99.90;;;;;;5011178;28;20238;-37
2022/06/14 00:30:29;;;;;;;13.98;2.97;;;11.50;99.90;;;;;;4998995;28;20054;-37
2022/06/14 00:32:55;;;;;;;7.07;2.67;;;11.50;99.90;;;;;;5017090;28;20070;-37
2022/06/14 00:35:29;;;;;;;11.52;3.30;;;11.60;99.90;;;;;;4999444;28;20053;-38
2022/06/14 00:37:55;;;;;;;14.38;3.40;;;11.50;99.90;;;;;;5022631;28;20076;-36
2022/06/14 00:40:27;;;;;;;12.35;3.33;;;11.60;99.90;;;;;;5000014;28;20050;-37
2022/06/14 00:42:53;;;;;;;13.25;3.40;;;11.60;99.90;;;;;;5010833;28;20137;-38
2022/06/14 00:45:41;;;;;;;13.48;3.13;;;11.60;99.90;;;;;;5036878;28;20049;-37
2022/06/14 00:48:33;;;;;;;14.43;3.47;;;11.60;99.90;;;;;;5017303;28;20049;-37
2022/06/14 00:51:24;;;;;;;19.50;3.78;;;11.60;99.90;;;;;;5036778;28;20047;-36
2022/06/14 00:54:12;;;;;;;14.20;3.30;;;11.60;99.90;;;;;;4996910;28;20042;-37
2022/06/14 00:56:48;;;;;;;13.55;3.45;;;11.50;99.90;;;;;;5000444;28;20113;-37
2022/06/14 00:59:32;;;;;;;13.48;3.30;;;11.50;99.90;;;;;;5014651;28;20057;-37
2022/06/14 01:02:08;;;;;;;12.05;3.65;;;11.50;99.90;;;;;;5011711;28;20049;-37
2022/06/14 01:04:36;;;;;;;13.85;3.95;;;11.40;99.90;;;;;;5007844;28;20493;-37
2022/06/14 01:07:18;;;;;;;9.35;3.40;;;11.40;99.90;;;;;;4994562;28;20567;-36
2022/06/14 01:09:49;;;;;;;12.30;3.35;;;11.40;99.90;;;;;;5016933;28;20156;-37
2022/06/14 01:12:20;;;;;;;17.70;3.70;;;11.40;99.90;;;;;;5030367;28;20042;-37
2022/06/14 01:15:33;;;;;;;12.73;3.53;;;11.30;99.90;;;;;;5015231;28;20053;-38
2022/06/14 01:18:12;;;;;;;11.65;3.13;;;11.30;99.90;;;;;;5002744;28;20045;-36
2022/06/14 01:20:38;;;;;;;7.63;3.17;;;11.20;99.90;;;;;;5021509;28;20037;-37
2022/06/14 01:23:08;;;;;;;17.73;3.80;;;11.20;99.90;;;;;;5025079;28;20045;-36
2022/06/14 01:25:39;;;;;;;13.05;3.38;;;11.20;99.90;;;;;;4999430;28;20131;-36
2022/06/14 01:28:06;;;;;;;14.90;3.50;;;11.20;99.90;;;;;;4990513;28;20085;-36
2022/06/14 01:30:36;;;;;;;11.70;3.67;;;11.20;99.90;;;;;;5017104;28;20054;-37
2022/06/14 01:33:15;;;;;;;8.50;3.25;;;11.10;99.90;;;;;;5027265;28;20045;-37
2022/06/14 01:35:44;;;;;;;13.73;3.40;;;11.10;99.90;;;;;;5017400;28;20363;-36
2022/06/14 01:38:14;;;;;;;12.38;3.15;;;11.10;99.90;;;;;;5010895;28;20517;-38
2022/06/14 01:41:02;;;;;;;15.23;3.53;;;11.10;99.90;;;;;;5013624;28;20409;-37
2022/06/14 01:43:48;;;;;;;13.45;3.45;;;11.00;99.90;;;;;;5011698;28;20049;-36
2022/06/14 01:46:28;;;;;;;11.15;3.22;;;11.00;99.90;;;;;;5018685;28;20085;-37
2022/06/14 01:48:54;;;;;;;11.05;3.35;;;10.90;99.90;;;;;;5010299;28;20056;-36
2022/06/14 01:51:52;;;;;;;14.98;3.65;;;10.90;99.90;;;;;;5035331;28;20133;-37
2022/06/14 01:55:16;;;;;;;9.88;3.25;;;10.90;99.90;;;;;;5018920;28;20060;-36
2022/06/14 01:58:17;;;;;;;8.43;3.33;;;10.80;99.90;;;;;;5010255;28;20052;-37
2022/06/14 02:01:12;;;;;;;13.55;3.50;;;10.80;99.90;;;;;;4919762;29;20048;-37
2022/06/14 02:07:04;;;;;;;11.35;3.33;;;10.70;99.90;;;;;;4900664;29;20431;-37
2022/06/14 02:10:00;;;;;;;10.80;3.25;;;10.70;99.90;;;;;;4904727;29;20044;-37
2022/06/14 02:12:45;;;;;;;13.05;3.80;;;10.70;99.90;;;;;;4901103;29;20115;-36
2022/06/14 02:15:50;;;;;;;11.73;3.55;;;10.70;99.90;;;;;;4931461;28;20069;-36
2022/06/14 02:18:39;;;;;;;10.05;3.40;;;10.60;99.90;;;;;;4976898;28;20101;-37
2022/06/14 02:21:38;;;;;;;15.38;3.30;;;10.60;99.90;;;;;;4979612;28;20046;-36
2022/06/14 02:24:31;;;;;;;11.32;3.20;;;10.60;99.90;;;;;;4986399;28;20050;-36
2022/06/14 02:27:21;;;;;;;13.57;3.70;;;10.60;99.90;;;;;;4957513;28;20058;-36
2022/06/14 02:29:59;;;;;;;12.48;3.38;;;10.50;99.90;;;;;;4975397;28;20517;-36
2022/06/14 02:32:41;;;;;;;11.98;3.22;;;10.50;99.90;;;;;;4973595;28;20070;-36
2022/06/14 02:35:16;;;;;;;14.60;3.42;;;10.50;99.90;;;;;;4987113;28;20049;-37
2022/06/14 02:38:11;;;;;;;10.10;3.40;;;10.40;99.90;;;;;;4978542;28;20066;-36
2022/06/14 02:40:43;;;;;;;13.48;3.60;;;10.40;99.90;;;;;;4975492;28;20074;-36
2022/06/14 02:43:32;;;;;;;11.40;3.58;;;10.40;99.90;;;;;;4976293;28;20050;-36
2022/06/14 02:46:25;;;;;;;17.05;3.45;;;10.40;99.90;;;;;;4992838;28;20104;-37
2022/06/14 02:49:24;;;;;;;7.78;2.28;;;10.40;99.90;;;;;;4993576;28;20445;-37
2022/06/14 02:52:16;;;;;;;13.57;3.60;;;10.30;99.90;;;;;;4990522;28;20105;-36
2022/06/14 02:55:22;;;;;;;12.90;3.30;;;10.30;99.90;;;;;;4974637;28;20054;-37
2022/06/14 02:58:08;;;;;;;11.82;2.95;;;10.30;99.90;;;;;;4983039;28;20531;-37
2022/06/14 03:01:04;;;;;;;12.07;3.53;;;10.20;99.90;;;;;;5065765;23;20058;-37
2022/06/14 03:03:47;;;;;;;9.73;3.78;;;10.20;99.90;;;;;;5027470;28;20120;-37
2022/06/14 03:06:39;;;;;;;11.63;3.90;;;10.20;99.90;;;;;;5051139;28;20048;-37
2022/06/14 03:09:27;;;;;;;12.45;3.75;;;10.20;99.90;;;;;;5035120;28;20048;-38
2022/06/14 03:12:26;;;;;;;10.05;3.47;;;10.20;99.90;;;;;;5015814;28;20061;-36
2022/06/14 03:15:00;;;;;;;11.43;3.75;;;10.20;99.90;;;;;;5030417;28;20118;-37
2022/06/14 03:17:51;;;;;;;10.82;3.72;;;10.20;99.90;;;;;;5029598;28;20048;-37
2022/06/14 03:20:48;;;;;;;12.02;4.22;;;10.20;99.90;;;;;;5031468;28;20053;-37
2022/06/14 03:23:41;;;;;;;11.35;3.45;;;10.10;99.90;;;;;;5032987;28;20574;-37
2022/06/14 03:26:32;;;;;;;14.50;3.83;;;10.10;99.90;;;;;;5033732;28;20059;-37
2022/06/14 03:29:22;;;;;;;12.27;3.83;;;10.10;99.90;;;;;;5018517;28;20045;-36
2022/06/14 03:31:57;;;;;;;12.33;3.63;;;10.10;99.90;;;;;;5036948;28;20270;-37
2022/06/14 03:34:41;;;;;;;12.13;3.90;;;10.10;99.90;;;;;;5022634;28;20404;-36
2022/06/14 03:37:08;;;;;;;13.98;3.85;;;10.10;99.90;;;;;;5027067;28;20401;-36
2022/06/14 03:39:43;;;;;;;15.45;3.75;;;10.00;99.90;;;;;;5036158;28;20583;-37
2022/06/14 03:42:11;;;;;;;12.27;4.00;;;10.10;99.90;;;;;;5016613;28;20087;-36
2022/06/14 03:44:38;;;;;;;9.68;4.47;;;10.10;99.90;;;;;;5016783;28;20054;-37
2022/06/14 03:47:15;;;;;;;12.57;4.10;;;10.10;99.90;;;;;;5003207;28;20050;-37
2022/06/14 03:49:47;;;;;;;12.40;4.00;;;10.10;99.90;;;;;;5016189;28;20147;-37
2022/06/14 03:52:34;;;;;;;11.32;3.60;;;10.10;99.90;;;;;;5026072;28;20152;-37
2022/06/14 03:55:40;;;;;;;11.93;3.70;;;10.00;99.90;;;;;;5014677;28;20097;-37
2022/06/14 03:58:30;;;;;;;9.93;3.92;;;10.10;99.90;;;;;;5009041;28;20050;-37
2022/06/14 04:01:01;;;;;;;9.68;4.13;;;10.10;99.90;;;;;;5017556;28;20068;-37
2022/06/14 04:04:05;;;;;;;12.70;4.35;;;10.00;99.90;;;;;;5012279;28;20041;-37
2022/06/14 04:07:18;;;;;;;10.13;4.18;;;10.00;99.90;;;;;;5015230;28;20060;-37
2022/06/14 04:09:44;;;;;;;10.90;4.22;;;10.00;99.90;;;;;;4957150;28;20440;-37
2022/06/14 04:12:42;;;;;;;12.25;4.28;;;10.00;99.90;;;;;;5015494;28;20046;-37
2022/06/14 04:15:18;;;;;;;15.73;4.88;;;10.00;99.90;;;;;;5003984;28;20042;-36
2022/06/14 04:17:58;;;;;;;8.77;4.20;;;10.00;99.90;;;;;;4994445;28;20548;-36
2022/06/14 04:20:45;;;;;;;7.77;4.20;;;10.10;99.90;;;;;;5011387;28;20540;-35
2022/06/14 04:23:47;;;;;;;12.10;4.10;;;10.00;99.90;;;;;;5014360;28;20053;-36
2022/06/14 04:26:45;;;;;;;13.57;4.57;;;10.10;99.90;;;;;;5009756;28;20038;-37
2022/06/14 04:29:38;;;;;;;19.17;4.95;;;10.10;99.90;;;;;;4997357;28;20112;-37
2022/06/14 04:32:14;;;;;;;10.73;4.22;;;10.10;99.90;;;;;;4992749;28;20564;-37
2022/06/14 04:34:48;;;;;;;12.50;4.55;;;10.10;99.90;;;;;;4997475;28;20085;-37
2022/06/14 04:37:40;;;;;;;13.05;4.40;;;10.10;99.90;;;;;;4987180;28;20050;-36
2022/06/14 04:40:37;;;;;;;12.73;4.47;;;10.10;99.90;;;;;;4984036;28;20127;-37
2022/06/14 04:43:24;;;;;;;11.27;4.28;;;10.20;99.90;;;;;;5004932;28;20170;-37
2022/06/14 04:46:03;;;;;;;12.20;4.40;;;10.20;99.90;;;;;;5014406;28;20110;-37
2022/06/14 04:48:44;;;;;;;12.80;4.38;;;10.20;99.90;;;;;;4997974;28;20046;-36
2022/06/14 04:51:24;;;;;;;7.15;3.08;;;10.30;99.90;;;;;;4998933;28;20077;-37
2022/06/14 04:53:56;;;;;;;8.80;4.25;;;10.30;99.90;;;;;;5002080;28;20050;-37
2022/06/14 04:56:51;;;;;;;12.18;4.03;;;10.40;99.90;;;;;;4990150;28;20378;-37
2022/06/14 04:59:23;;;;;;;8.43;3.58;;;10.40;99.90;;;;;;4977961;28;20061;-36
2022/06/14 05:02:13;;;;;;;10.02;3.90;;;10.50;99.90;;;;;;4983538;28;20100;-37
2022/06/14 05:04:53;;;;;;;8.43;3.53;;;10.50;99.90;;;;;;4991411;28;20054;-37
2022/06/14 05:07:29;;;;;;;8.90;3.37;;;10.60;99.90;;;;;;4969222;28;20046;-37
2022/06/14 05:10:15;;;;;;;8.70;3.20;;;10.70;99.90;;;;;;4969616;28;20589;-37
2022/06/14 05:13:05;;;;;;;12.45;4.00;;;10.80;99.90;;;;;;4995704;28;20050;-37
2022/06/14 05:15:57;;;;;;;12.88;4.07;;;10.80;99.90;;;;;;5014209;28;20124;-36
2022/06/14 05:18:34;;;;;;;;;;;10.90;99.90;;;;;;4996120;28;20045;-35
2022/06/14 05:21:17;;;;;;;12.68;4.40;;;11.00;99.90;;;;;;5001651;28;19977;-35
2022/06/14 05:24:09;;;;;;;11.73;4.38;;;11.10;99.90;;;;;;5006581;28;20115;-37
2022/06/14 05:27:17;;;;;;;9.02;3.33;;;11.20;99.90;;;;;;5011028;28;20058;-36
2022/06/14 05:30:20;;;;;;;10.57;3.90;;;11.20;99.90;;;;;;5004435;28;20038;-37
2022/06/14 05:32:56;;;;;;;10.35;4.18;;;11.30;99.90;;;;;;4994035;28;20064;-36
2022/06/14 05:35:46;;;;;;;12.02;3.75;;;11.40;99.90;;;;;;4992799;28;20052;-36
2022/06/14 05:38:37;;;;;;;9.75;3.63;;;11.50;99.90;;;;;;5008812;28;20103;-36
2022/06/14 05:41:15;;;;;;;11.05;3.78;;;11.60;99.90;;;;;;5003105;28;20077;-37
2022/06/14 05:44:08;;;;;;;9.85;3.25;;;11.70;99.90;;;;;;5002203;28;20136;-37
2022/06/14 05:46:38;;;;;;;11.32;4.10;;;11.70;99.90;;;;;;4986314;28;20060;-38
2022/06/14 05:49:22;;;;;;;11.38;3.85;;;11.80;99.90;;;;;;5003893;28;20513;-37
2022/06/14 05:52:35;;;;;;;11.48;3.85;;;11.90;99.90;;;;;;4981212;28;20181;-38
2022/06/14 05:55:29;;;;;;;12.50;3.20;;;12.00;99.90;;;;;;4986338;28;20438;-38
2022/06/14 05:58:07;;;;;;;11.75;3.53;;;12.10;99.90;;;;;;4974602;28;20119;-37
2022/06/14 06:01:02;;;;;;;10.65;3.33;;;12.10;99.90;;;;;;4996244;28;20055;-39
2022/06/14 06:03:52;;;;;;;8.73;3.38;;;12.20;99.90;;;;;;5006283;28;20037;-36
2022/06/14 06:06:25;;;;;;;11.10;3.67;;;12.20;99.90;;;;;;4991813;28;20041;-38
2022/06/14 06:09:03;;;;;;;8.98;3.83;;;12.30;99.90;;;;;;5016869;28;20112;-37
2022/06/14 06:11:41;;;;;;;12.75;3.70;;;12.40;99.90;;;;;;5024360;22;20060;-37
2022/06/14 06:14:12;;;;;;;11.90;3.90;;;12.50;99.90;;;;;;5009799;28;20149;-38
2022/06/14 06:19:36;;;;;;;9.27;3.42;;;12.80;99.90;;;;;;5010077;28;20405;-38
2022/06/14 06:22:43;;;;;;;9.82;2.85;;;12.90;99.90;;;;;;5007127;28;20053;-37
2022/06/14 06:25:25;;;;;;;9.50;3.17;;;13.10;99.90;;;;;;5024220;28;20390;-38
2022/06/14 06:28:23;;;;;;;11.00;3.05;;;13.30;99.90;;;;;;5020367;28;20817;-38
2022/06/14 06:30:58;;;;;;;10.77;3.20;;;13.40;99.90;;;;;;5026748;28;20408;-37
2022/06/14 06:33:29;;;;;;;13.23;2.63;;;13.50;99.90;;;;;;5026304;28;20049;-38
2022/06/14 06:36:33;;;;;;;12.82;2.80;;;13.60;99.90;;;;;;5013808;28;20057;-37
2022/06/14 06:39:24;;;;;;;12.57;3.08;;;13.70;99.90;;;;;;5017217;28;20117;-38
2022/06/14 06:41:55;;;;;;;7.57;2.83;;;13.80;99.90;;;;;;5024786;28;20496;-38
2022/06/14 06:44:27;;;;;;;9.93;2.83;;;13.90;99.90;;;;;;5033854;28;20488;-36
2022/06/14 06:47:18;;;;;;;10.95;2.53;;;14.00;99.90;;;;;;5007940;28;20054;-36
2022/06/14 06:50:03;;;;;;;6.53;2.38;;;14.10;99.90;;;;;;4997545;28;20053;-36
2022/06/14 06:52:38;;;;;;;10.52;2.65;;;14.30;99.90;;;;;;5019877;28;20037;-37
2022/06/14 06:55:15;;;;;;;7.68;2.10;;;14.30;99.90;;;;;;5036281;28;20057;-37
2022/06/14 06:57:53;;;;;;;9.68;2.22;;;14.40;99.90;;;;;;5020820;28;20053;-38
2022/06/14 07:00:20;;;;;;;6.57;2.20;;;14.50;99.90;;;;;;5007795;28;20061;-37
2022/06/14 07:02:53;;;;;;;6.30;2.00;;;14.60;99.90;;;;;;5003203;28;20049;-37
2022/06/14 07:05:19;;;;;;;10.60;1.88;;;14.70;99.90;;;;;;5020995;28;20497;-37
2022/06/14 07:07:57;;;;;;;7.88;1.73;;;14.80;99.90;;;;;;5006896;28;20069;-37
2022/06/14 07:10:43;;;;;;;9.90;2.05;;;14.90;99.90;;;;;;5014765;28;20049;-38
2022/06/14 07:13:12;;;;;;;9.85;1.67;;;15.00;99.90;;;;;;5011426;28;20058;-38
2022/06/14 07:15:59;;;;;;;3.28;1.30;;;15.10;99.90;;;;;;5014552;28;20042;-38
2022/06/14 07:18:48;;;;;;;9.13;1.70;;;15.20;99.90;;;;;;5002353;28;20161;-38
2022/06/14 07:21:42;;;;;;;4.20;1.20;;;15.20;99.90;;;;;;5002363;28;20077;-37
2022/06/14 07:24:34;;;;;;;5.18;1.17;;;15.30;99.90;;;;;;5009469;28;20050;-38
2022/06/14 07:27:14;;;;;;;5.82;1.15;;;15.30;99.90;;;;;;5007153;28;20042;-38
2022/06/14 07:29:47;;;;;;;4.47;1.23;;;15.30;99.90;;;;;;5013029;28;20104;-38
2022/06/14 07:32:30;;;;;;;4.00;0.88;;;15.40;99.90;;;;;;5011871;28;20053;-37
2022/06/14 07:34:58;;;;;;;6.18;1.33;;;15.40;99.90;;;;;;5011892;28;20054;-38
2022/06/14 07:37:42;;;;;;;7.13;1.10;;;15.50;99.90;;;;;;4994400;28;20520;-38
2022/06/14 07:40:26;;;;;;;4.93;1.30;;;15.60;99.90;;;;;;5012414;28;20374;-38
2022/06/14 07:43:04;;;;;;;6.82;1.42;;;15.60;99.90;;;;;;5012771;28;20054;-37
2022/06/14 07:45:37;;;;;;;3.80;0.80;;;15.70;99.90;;;;;;5010649;28;20049;-38
2022/06/14 07:48:34;;;;;;;3.53;0.90;;;15.70;99.90;;;;;;5004695;28;20041;-38
2022/06/14 07:51:03;;;;;;;6.15;1.55;;;15.70;99.90;;;;;;5018418;28;20045;-38
2022/06/14 07:53:49;;;;;;;4.18;1.15;;;15.80;99.90;;;;;;5011143;28;20053;-39
2022/06/14 07:56:25;;;;;;;5.15;1.20;;;15.80;99.90;;;;;;5009410;28;20062;-38
2022/06/14 07:59:29;;;;;;;3.80;0.93;;;15.80;99.90;;;;;;5007693;28;20552;-38
2022/06/14 08:02:27;;;;;;;6.60;1.25;;;15.90;99.90;;;;;;5009333;28;20054;-39
2022/06/14 08:05:13;;;;;;;4.10;1.15;;;15.90;99.90;;;;;;5009202;28;20125;-38
2022/06/14 08:07:40;;;;;;;5.75;1.10;;;16.00;99.90;;;;;;5007842;28;20034;-38
2022/06/14 08:10:29;;;;;;;3.40;0.98;;;15.90;99.90;;;;;;5010096;28;20116;-38
2022/06/14 08:13:19;;;;;;;4.03;1.00;;;16.00;99.90;;;;;;5033488;28;20252;-38
2022/06/14 08:15:52;;;;;;;7.55;1.25;;;16.00;99.90;;;;;;5026002;28;20074;-37
2022/06/14 08:18:45;;;;;;;5.53;1.55;;;16.10;99.90;;;;;;5020163;28;20509;-39
2022/06/14 08:21:40;;;;;;;4.05;1.35;;;16.10;99.90;;;;;;5034194;28;20057;-39
2022/06/14 08:24:09;;;;;;;4.82;1.10;;;16.20;99.90;;;;;;5037113;28;20049;-38
2022/06/14 08:27:05;;;;;;;4.05;0.80;;;16.30;99.90;;;;;;5030741;28;20360;-39
2022/06/14 08:29:35;;;;;;;3.60;1.25;;;16.30;99.90;;;;;;5004307;28;20046;-38
2022/06/14 08:32:42;;;;;;;5.13;1.10;;;16.30;99.90;;;;;;5015904;28;20129;-37
2022/06/14 08:35:13;;;;;;;4.68;1.08;;;16.20;99.90;;;;;;5015027;28;20052;-38
2022/06/14 08:38:07;;;;;;;4.53;1.05;;;16.20;99.90;;;;;;5007738;28;20046;-37
2022/06/14 08:41:01;;;;;;;3.08;1.05;;;16.20;99.90;;;;;;5002259;28;20100;-38
2022/06/14 08:43:35;;;;;;;4.65;0.95;;;16.20;99.90;;;;;;5012357;28;20061;-38
2022/06/14 08:46:19;;;;;;;4.55;0.70;;;16.20;99.90;;;;;;5014619;28;20058;-38
2022/06/14 08:49:22;;;;;;;3.22;0.70;;;16.30;99.90;;;;;;5014591;28;20054;-39
2022/06/14 08:52:03;;;;;;;1.77;0.50;;;16.30;99.90;;;;;;5015626;28;20065;-38
2022/06/14 08:54:33;;;;;;;3.88;0.95;;;16.40;99.90;;;;;;5009937;28;20052;-38
2022/06/14 08:57:23;;;;;;;2.10;0.70;;;16.40;99.90;;;;;;5003670;28;20461;-38
2022/06/14 09:00:00;;;;;;;4.20;0.98;;;16.50;99.90;;;;;;5009506;28;20054;-38
2022/06/14 09:02:47;;;;;;;4.60;0.90;;;16.50;99.90;;;;;;5013125;28;20057;-38
2022/06/14 09:05:36;;;;;;;3.92;0.90;;;16.60;99.90;;;;;;5014129;28;20052;-38
2022/06/14 09:08:33;;;;;;;7.82;1.33;;;16.80;99.90;;;;;;5004365;28;20528;-38
2022/06/14 09:11:50;;;;;;;4.07;0.80;;;16.80;99.90;;;;;;5007527;28;20065;-39
2022/06/14 09:14:55;;;;;;;4.40;1.25;;;16.80;99.90;;;;;;4993180;28;20058;-38
2022/06/14 09:18:01;;;;;;;3.28;0.90;;;16.80;99.90;;;;;;4977601;28;20057;-39
2022/06/14 09:20:38;;;;;;;4.47;1.10;;;16.90;99.90;;;;;;5007686;23;20066;-38
2022/06/14 09:23:06;;;;;;;5.05;1.17;;;16.90;99.90;;;;;;5003339;28;20054;-38
2022/06/14 09:25:38;;;;;;;4.05;1.40;;;17.00;99.90;;;;;;5013925;28;20129;-38
2022/06/14 09:28:23;;;;;;;3.05;1.40;;;16.90;99.90;;;;;;5003771;28;20527;-37
2022/06/14 09:31:21;;;;;;;6.90;1.25;;;16.90;99.90;;;;;;5014395;28;20062;-37
2022/06/14 09:34:05;;;;;;;3.27;1.30;;;17.00;99.90;;;;;;5011065;28;20427;-38
2022/06/14 09:37:00;;;;;;;2.85;1.42;;;17.00;99.90;;;;;;5001579;28;20471;-38
2022/06/14 09:40:06;;;;;;;4.00;1.20;;;17.00;99.90;;;;;;5013042;28;20065;-38
2022/06/14 09:43:13;;;;;;;3.22;0.70;;;17.10;99.90;;;;;;5009940;28;20057;-37
2022/06/14 09:45:48;;;;;;;2.33;0.82;;;17.20;99.90;;;;;;4974198;28;20132;-38
2022/06/14 09:48:25;;;;;;;3.78;0.88;;;17.30;99.90;;;;;;5004802;28;20049;-38
2022/06/14 09:51:10;;;;;;;3.92;1.02;;;17.40;99.90;;;;;;5014213;28;20132;-38
2022/06/14 09:54:16;;;;;;;5.03;1.00;;;17.40;99.90;;;;;;5012323;28;20412;-38
2022/06/14 09:57:13;;;;;;;3.78;0.88;;;17.40;99.90;;;;;;4994577;28;20046;-39
2022/06/14 10:00:14;;;;;;;4.47;1.08;;;17.40;99.90;;;;;;5013499;28;20057;-38
2022/06/14 10:03:06;;;;;;;3.07;1.00;;;17.40;99.90;;;;;;5012523;28;20038;-38
2022/06/14 10:06:03;;;;;;;3.33;0.90;;;17.40;99.90;;;;;;5013173;28;20045;-37
2022/06/14 10:09:08;;;;;;;3.28;0.90;;;17.30;99.90;;;;;;5002013;28;20045;-38
2022/06/14 10:11:43;;;;;;;2.15;1.00;;;17.30;99.90;;;;;;4959188;28;20137;-38
2022/06/14 10:14:30;;;;;;;4.03;1.02;;;17.30;99.90;;;;;;4993278;28;20093;-38
2022/06/14 10:17:05;;;;;;;2.88;1.05;;;17.10;99.90;;;;;;4996027;28;20501;-38
2022/06/14 10:20:13;;;;;;;5.20;1.40;;;17.20;99.90;;;;;;5018832;28;20156;-39
2022/06/14 10:22:58;;;;;;;4.20;0.95;;;17.20;99.90;;;;;;4973013;28;20085;-38
2022/06/14 10:29:15;;;;;;;4.25;1.27;;;17.10;99.90;;;;;;5010871;28;20108;-37
2022/06/14 10:32:03;;;;;;;3.42;1.25;;;17.10;99.90;;;;;;5014115;28;20053;-38
2022/06/14 10:34:54;;;;;;;3.53;1.52;;;17.10;99.90;;;;;;5024492;28;20046;-38
2022/06/14 10:37:35;;;;;;;4.00;1.70;;;17.20;99.90;;;;;;5010148;28;20056;-38
2022/06/14 10:40:12;;;;;;;6.68;1.85;;;17.20;99.90;;;;;;5029492;28;20070;-37
2022/06/14 10:42:58;;;;;;;4.22;1.50;;;17.20;99.90;;;;;;5029788;28;20449;-38
2022/06/14 10:45:28;;;;;;;4.95;1.75;;;17.20;99.90;;;;;;5031436;28;20037;-38
2022/06/14 10:48:27;;;;;;;6.43;1.50;;;17.20;99.90;;;;;;5003283;28;20501;-38
2022/06/14 10:50:59;;;;;;;6.22;1.30;;;17.30;99.90;;;;;;5019517;28;20058;-37
2022/06/14 10:53:46;;;;;;;3.92;1.40;;;17.30;99.90;;;;;;5019041;28;20096;-38
2022/06/14 10:56:39;;;;;;;4.55;1.33;;;17.50;99.90;;;;;;5017123;28;20409;-38
2022/06/14 10:59:13;;;;;;;4.05;1.60;;;17.50;99.90;;;;;;4998120;28;20426;-37
2022/06/14 11:02:31;;;;;;;5.82;1.60;;;17.60;99.90;;;;;;5033159;28;20140;-38
2022/06/14 11:05:21;;;;;;;3.80;1.25;;;17.60;99.90;;;;;;5027403;28;20050;-38
2022/06/14 11:08:24;;;;;;;5.95;1.40;;;17.60;99.90;;;;;;4984529;28;20099;-38
2022/06/14 11:11:23;;;;;;;7.30;1.55;;;17.80;99.90;;;;;;5014202;28;20050;-38
2022/06/14 11:14:35;;;;;;;4.72;1.65;;;17.90;99.90;;;;;;5024175;28;20049;-38
2022/06/14 11:17:34;;;;;;;7.68;1.83;;;17.90;99.90;;;;;;4935281;29;20043;-38
2022/06/14 11:20:15;;;;;;;4.30;1.15;;;17.90;99.90;;;;;;4939106;29;20202;-38
2022/06/14 11:22:47;;;;;;;3.13;0.68;;;18.00;99.90;;;;;;5013180;28;20041;-38
2022/06/14 11:25:54;;;;;;;4.68;0.98;;;18.10;99.90;;;;;;5032342;28;20046;-39
2022/06/14 11:28:40;;;;;;;2.78;1.10;;;18.10;99.90;;;;;;4980902;28;20490;-38
2022/06/14 11:31:18;;;;;;;6.18;1.10;;;18.20;99.90;;;;;;5019640;28;20050;-38
2022/06/14 11:34:22;;;;;;;5.57;1.30;;;18.20;99.90;;;;;;5017005;28;20089;-38
2022/06/14 11:37:11;;;;;;;3.45;1.20;;;18.20;99.90;;;;;;5013505;28;20055;-38
2022/06/14 11:39:50;;;;;;;3.85;1.52;;;18.30;99.90;;;;;;5035825;28;20132;-38
2022/06/14 11:42:46;;;;;;;4.35;1.60;;;18.40;99.90;;;;;;5026536;28;20129;-39
2022/06/14 11:45:39;;;;;;;5.30;1.10;;;18.40;99.90;;;;;;5000065;28;20116;-39
2022/06/14 11:48:34;;;;;;;5.55;1.23;;;18.50;99.90;;;;;;4989917;28;20121;-39
2022/06/14 11:51:13;;;;;;;2.58;1.00;;;18.50;99.90;;;;;;5036395;28;20049;-38
2022/06/14 11:53:59;;;;;;;3.85;1.17;;;18.50;99.90;;;;;;5027862;28;20049;-37
2022/06/14 11:56:43;;;;;;;4.13;1.20;;;18.60;99.90;;;;;;5009851;28;20486;-38
2022/06/14 11:59:38;;;;;;;4.10;1.10;;;18.60;99.90;;;;;;5011391;28;20045;-39
2022/06/14 12:02:38;;;;;;;3.13;0.93;;;18.80;99.90;;;;;;5035375;28;20045;-38
2022/06/14 12:05:23;;;;;;;2.80;1.10;;;18.80;99.90;;;;;;5030583;28;20037;-38
2022/06/14 12:08:28;;;;;;;2.65;0.95;;;18.90;99.90;;;;;;4997132;28;20052;-38
2022/06/14 12:11:07;;;;;;;4.65;1.20;;;19.00;99.90;;;;;;4940923;28;20087;-39
2022/06/14 12:13:55;;;;;;;3.33;0.95;;;19.10;99.90;;;;;;5028945;28;20045;-39
2022/06/14 12:16:59;;;;;;;2.65;0.90;;;19.20;99.90;;;;;;5011954;28;20481;-38
2022/06/14 12:19:31;;;;;;;3.20;0.98;;;19.30;99.90;;;;;;5017515;28;20106;-39
2022/06/14 12:22:28;;;;;;;6.55;1.30;;;19.30;99.90;;;;;;5024648;28;20049;-38
2022/06/14 12:28:31;;;;;;;2.88;0.82;;;19.40;99.90;;;;;;4997159;28;20049;-38
2022/06/14 12:31:20;;;;;;;2.90;1.10;;;19.40;99.90;;;;;;4996274;28;20046;-39
2022/06/14 12:34:01;;;;;;;5.80;1.20;;;19.40;99.90;;;;;;4966613;28;20061;-39
2022/06/14 12:36:36;;;;;;;5.63;0.90;;;19.40;99.90;;;;;;4994902;28;20058;-38
2022/06/14 12:39:11;;;;;;;3.17;0.88;;;19.40;99.90;;;;;;5002389;28;20050;-38
2022/06/14 12:41:54;;;;;;;2.88;0.88;;;19.40;99.90;;;;;;4983322;28;20066;-39
2022/06/14 12:44:56;;;;;;;2.28;0.95;;;19.50;99.90;;;;;;5013047;28;20076;-39
2022/06/14 12:47:59;;;;;;;5.53;1.50;;;19.40;99.90;;;;;;5008772;28;20120;-39
2022/06/14 12:50:39;;;;;;;5.47;1.73;;;19.30;99.90;;;;;;5015384;28;20049;-38
2022/06/14 12:53:44;;;;;;;6.60;1.70;;;19.20;99.90;;;;;;5034658;28;20496;-39
2022/06/14 12:56:35;;;;;;;3.90;1.05;;;19.20;99.90;;;;;;4991879;28;20287;-39
2022/06/14 12:59:37;;;;;;;2.85;1.02;;;19.20;99.90;;;;;;5024928;28;20413;-39
2022/06/14 13:02:26;;;;;;;3.63;1.20;;;19.20;99.90;;;;;;5024116;28;20443;-38
2022/06/14 13:05:10;;;;;;;3.95;1.10;;;19.20;99.90;;;;;;4971979;28;20140;-39
2022/06/14 13:08:13;;;;;;;2.95;1.08;;;19.20;99.90;;;;;;4997598;28;20041;-39
2022/06/14 13:10:58;;;;;;;3.70;1.20;;;19.20;99.90;;;;;;5033467;28;20046;-38
2022/06/14 13:13:58;;;;;;;2.88;1.05;;;19.20;99.90;;;;;;5012087;28;20054;-39
2022/06/14 13:16:54;;;;;;;4.50;1.38;;;19.20;99.90;;;;;;4988915;28;20467;-39
2022/06/14 13:19:38;;;;;;;4.32;1.48;;;19.20;99.90;;;;;;5019081;28;20138;-39
2022/06/14 13:22:07;;;;;;;6.43;1.40;;;19.20;99.90;;;;;;5032185;28;20108;-39
2022/06/14 13:24:38;;;;;;;4.80;1.58;;;19.30;99.90;;;;;;5027817;28;20073;-37
2022/06/14 13:27:34;;;;;;;3.63;1.40;;;19.30;99.90;;;;;;5018237;28;20049;-39
2022/06/14 13:30:11;;;;;;;4.05;1.88;;;19.30;99.90;;;;;;5023987;28;20046;-38
2022/06/14 13:32:43;;;;;;;3.22;1.45;;;19.30;99.90;;;;;;5005845;28;20574;-38
2022/06/14 13:35:31;;;;;;;5.72;1.98;;;19.40;99.90;;;;;;5015456;28;20077;-39
2022/06/14 13:38:12;;;;;;;4.10;1.75;;;19.40;99.90;;;;;;5004648;28;20444;-39
2022/06/14 13:40:44;;;;;;;4.53;2.03;;;19.50;99.90;;;;;;5025240;28;20200;-39
2022/06/14 13:43:31;;;;;;;4.95;1.90;;;19.40;99.90;;;;;;5021574;28;20056;-38
2022/06/14 13:46:19;;;;;;;6.15;1.80;;;19.40;99.90;;;;;;5024087;28;20124;-38
2022/06/14 13:48:47;;;;;;;5.13;1.77;;;19.40;99.90;;;;;;5018118;28;20049;-38
2022/06/14 13:51:33;;;;;;;6.05;2.05;;;19.40;99.90;;;;;;5022286;28;20073;-38
2022/06/14 13:54:45;;;;;;;6.13;2.08;;;19.50;99.90;;;;;;5019183;28;20041;-38
2022/06/14 13:57:32;;;;;;;6.65;2.13;;;19.50;99.90;;;;;;5000150;28;20050;-38
2022/06/14 14:00:18;;;;;;;3.67;2.00;;;19.50;99.90;;;;;;5004843;28;20060;-38
2022/06/14 14:02:54;;;;;;;3.90;2.08;;;19.50;99.90;;;;;;5012953;28;20064;-38
2022/06/14 14:05:30;;;;;;;7.05;2.40;;;19.50;99.90;;;;;;5014477;28;20513;-38
2022/06/14 14:08:31;;;;;;;3.78;2.20;;;19.60;99.90;;;;;;5001610;28;20049;-37
2022/06/14 14:11:19;;;;;;;5.43;2.45;;;19.60;99.90;;;;;;5025333;28;20745;-38
2022/06/14 14:13:55;;;;;;;4.65;1.67;;;19.60;99.90;;;;;;5005263;28;20183;-38
2022/06/14 14:17:05;;;;;;;3.70;1.73;;;19.60;99.90;;;;;;5009108;28;20045;-38
2022/06/14 14:19:59;;;;;;;7.38;1.98;;;19.60;99.90;;;;;;5028649;28;20057;-38
2022/06/14 14:22:39;;;;;;;3.88;1.63;;;19.60;99.90;;;;;;5030757;28;20103;-37
2022/06/14 14:25:40;;;;;;;5.60;2.83;;;19.60;99.90;;;;;;5026519;28;20061;-38
2022/06/14 14:28:30;;;;;;;4.10;2.58;;;19.60;99.90;;;;;;4986189;28;20519;-39